createdAt,value
2019-05-25T00:02:22.263Z,8.10
2019-05-25T00:07:23.628Z,8.10
2019-05-25T00:12:31.617Z,7.37
2019-05-25T00:17:32.872Z,7.90
2019-05-25T00:22:37.623Z,8.98
2019-05-25T00:27:39.786Z,8.30
2019-05-25T00:32:41.867Z,8.40
2019-05-25T00:37:44.283Z,8.48
2019-05-25T00:42:47.244Z,8.80
2019-05-25T00:47:51.329Z,9.55
2019-05-25T00:52:55.434Z,8.18
2019-05-25T00:57:58.142Z,12.05
2019-05-25T01:02:59.890Z,10.70
2019-05-25T01:08:01.653Z,10.98
2019-05-25T01:13:04.244Z,9.38
2019-05-25T01:18:08.395Z,11.10
2019-05-25T01:23:12.549Z,12.20
2019-05-25T01:28:15.790Z,13.03
2019-05-25T01:33:17.926Z,12.50
2019-05-25T01:38:19.782Z,12.18
2019-05-25T01:43:23.129Z,11.00
2019-05-25T01:48:24.869Z,13.68
2019-05-25T01:53:26.520Z,13.13
2019-05-25T01:58:29.651Z,12.43
2019-05-25T02:03:31.124Z,12.10
2019-05-25T02:08:44.623Z,13.80
2019-05-25T02:13:46.875Z,14.05
2019-05-25T02:18:53.192Z,14.90
2019-05-25T02:23:58.389Z,14.03
2019-05-25T02:29:02.515Z,13.85
2019-05-25T02:34:03.955Z,13.72
2019-05-25T02:39:07.772Z,13.65
2019-05-25T02:44:09.590Z,12.93
2019-05-25T02:49:12.122Z,13.35
2019-05-25T02:54:13.432Z,13.40
2019-05-25T02:59:14.733Z,12.53
2019-05-25T03:04:16.636Z,13.85
2019-05-25T03:09:23.686Z,12.88
2019-05-25T03:14:27.239Z,13.68
2019-05-25T03:19:28.523Z,12.68
2019-05-25T03:24:30.043Z,14.43
2019-05-25T03:29:31.314Z,17.85
2019-05-25T03:34:32.619Z,22.60
2019-05-25T03:39:33.850Z,24.57
2019-05-25T03:44:35.210Z,19.65
2019-05-25T03:49:38.966Z,17.32
2019-05-25T03:54:41.624Z,16.05
2019-05-25T03:59:42.974Z,15.00
2019-05-25T04:04:47.294Z,17.60
2019-05-25T04:09:48.547Z,18.07
2019-05-25T04:14:51.244Z,16.30
2019-05-25T04:19:54.956Z,18.60
2019-05-25T04:24:56.268Z,16.00
2019-05-25T04:29:57.522Z,14.38
2019-05-25T04:34:59.046Z,13.95
2019-05-25T04:40:00.755Z,15.55
2019-05-25T04:45:05.657Z,15.08
2019-05-25T04:50:09.564Z,14.40
2019-05-25T04:55:11.839Z,13.90
2019-05-25T05:00:16.240Z,15.28
2019-05-25T05:05:19.445Z,14.28
2019-05-25T05:10:21.948Z,14.25
2019-05-25T05:15:23.222Z,13.70
2019-05-25T05:20:24.614Z,13.75
2019-05-25T05:25:27.127Z,12.75
2019-05-25T05:30:33.110Z,12.47
2019-05-25T05:35:38.905Z,12.53
2019-05-25T05:40:40.648Z,12.45
2019-05-25T05:45:46.043Z,12.45
2019-05-25T05:50:52.143Z,13.93
2019-05-25T05:55:54.030Z,13.18
2019-05-25T06:00:57.695Z,12.20
2019-05-25T06:05:59.868Z,12.73
2019-05-25T06:11:01.540Z,12.50
2019-05-25T06:16:02.979Z,12.33
2019-05-25T06:21:05.111Z,12.00
2019-05-25T06:26:06.533Z,12.50
2019-05-25T06:31:07.937Z,11.43
2019-05-25T06:36:09.586Z,11.00
2019-05-25T06:41:11.301Z,10.03
2019-05-25T06:46:15.457Z,9.75
2019-05-25T06:51:18.490Z,9.35
2019-05-25T06:56:19.897Z,9.15
2019-05-25T07:01:24.117Z,9.98
2019-05-25T07:06:25.658Z,9.73
2019-05-25T07:11:27.051Z,8.63
2019-05-25T07:16:29.963Z,10.58
2019-05-25T07:21:31.469Z,10.88
2019-05-25T07:26:32.758Z,10.20
2019-05-25T07:31:36.462Z,9.75
2019-05-25T07:36:37.753Z,12.10
2019-05-25T07:41:42.881Z,10.08
2019-05-25T07:46:46.550Z,10.68
2019-05-25T07:51:56.906Z,11.20
2019-05-25T07:56:58.896Z,10.50
2019-05-25T08:02:04.188Z,10.20
2019-05-25T08:07:09.704Z,10.55
2019-05-25T08:12:14.326Z,9.95
2019-05-25T08:17:18.968Z,10.23
2019-05-25T08:22:24.353Z,9.45
2019-05-25T08:27:29.039Z,8.75
2019-05-25T08:32:31.327Z,9.03
2019-05-25T08:37:35.912Z,11.05
2019-05-25T08:42:37.527Z,11.50
2019-05-25T08:47:42.273Z,11.48
2019-05-25T08:52:49.878Z,11.88
2019-05-25T08:57:56.951Z,11.57
2019-05-25T09:03:00.374Z,10.80
2019-05-25T09:08:06.123Z,11.00
2019-05-25T09:13:08.218Z,10.48
2019-05-25T09:18:12.058Z,11.08
2019-05-25T09:23:13.996Z,10.28
2019-05-25T09:28:24.421Z,9.58
2019-05-25T09:33:26.513Z,8.90
2019-05-25T09:38:34.378Z,9.60
2019-05-25T09:43:42.033Z,8.90
2019-05-25T09:48:45.718Z,9.23
2019-05-25T09:53:47.855Z,8.83
2019-05-25T09:58:50.705Z,8.50
2019-05-25T10:03:56.722Z,8.15
2019-05-25T10:08:58.717Z,9.40
2019-05-25T10:14:00.537Z,8.50
2019-05-25T10:19:03.152Z,7.90
2019-05-25T10:24:09.215Z,6.80
2019-05-25T10:29:13.952Z,5.67
2019-05-25T10:34:15.575Z,6.50
2019-05-25T10:39:19.917Z,7.00
2019-05-25T10:44:21.531Z,7.67
2019-05-25T10:49:22.886Z,7.37
2019-05-25T10:54:24.237Z,6.70
2019-05-25T10:59:26.782Z,7.10
2019-05-25T11:04:31.387Z,9.15
2019-05-25T11:09:33.494Z,8.18
2019-05-25T11:14:36.220Z,8.15
2019-05-25T11:19:37.966Z,7.80
2019-05-25T11:24:39.379Z,8.68
2019-05-25T11:29:40.952Z,7.27
2019-05-25T11:34:42.345Z,9.55
2019-05-25T11:39:43.670Z,7.40
2019-05-25T11:44:45.311Z,8.55
2019-05-25T11:49:46.799Z,8.30
2019-05-25T11:54:48.095Z,8.00
2019-05-25T11:59:51.596Z,8.88
2019-05-25T12:04:52.873Z,7.30
2019-05-25T12:09:57.139Z,6.03
2019-05-25T12:15:06.736Z,6.62
2019-05-25T12:20:10.219Z,6.75
2019-05-25T12:25:13.463Z,7.90
2019-05-25T12:30:20.682Z,7.47
2019-05-25T12:35:23.932Z,7.30
2019-05-25T12:40:29.003Z,6.80
2019-05-25T12:45:30.304Z,6.22
2019-05-25T12:50:32.950Z,7.20
2019-05-25T12:55:34.517Z,9.70
2019-05-25T13:00:36.671Z,9.13
2019-05-25T13:05:38.046Z,8.58
2019-05-25T13:10:40.890Z,7.33
2019-05-25T13:15:42.204Z,7.50
2019-05-25T13:20:46.199Z,7.15
2019-05-25T13:25:49.424Z,9.35
2019-05-25T13:30:50.894Z,7.62
2019-05-25T13:35:52.359Z,7.83
2019-05-25T13:40:53.840Z,8.18
2019-05-25T13:45:55.243Z,8.30
2019-05-25T13:50:56.534Z,8.28
2019-05-25T13:55:57.825Z,9.00
2019-05-25T14:00:59.485Z,9.53
2019-05-25T14:06:00.801Z,10.93
2019-05-25T14:11:02.268Z,13.18
2019-05-25T14:16:07.459Z,8.75
2019-05-25T14:21:09.010Z,8.38
2019-05-25T14:26:13.350Z,4.37
2019-05-25T14:31:17.223Z,3.60
2019-05-25T14:36:20.090Z,2.52
2019-05-25T14:41:22.659Z,2.58
2019-05-25T14:46:28.174Z,3.02
2019-05-25T14:51:31.011Z,4.78
2019-05-25T14:56:35.636Z,2.98
2019-05-25T15:01:39.349Z,6.08
2019-05-25T15:06:40.739Z,1.40
2019-05-25T15:11:45.134Z,4.35
2019-05-25T15:16:46.664Z,5.05
2019-05-25T15:21:48.477Z,3.98
2019-05-25T15:26:49.896Z,3.92
2019-05-25T15:31:51.277Z,3.90
2019-05-25T15:36:54.564Z,3.10
2019-05-25T15:41:55.854Z,3.90
2019-05-25T15:46:57.151Z,3.27
2019-05-25T15:52:00.283Z,3.92
2019-05-25T15:57:01.586Z,4.90
2019-05-25T16:02:04.747Z,5.33
2019-05-25T16:07:06.227Z,4.92
2019-05-25T16:12:07.664Z,5.65
2019-05-25T16:17:13.125Z,5.03
2019-05-25T16:22:14.457Z,5.55
2019-05-25T16:27:16.175Z,6.92
2019-05-25T16:32:25.314Z,8.10
2019-05-25T16:37:28.998Z,7.85
2019-05-25T16:42:32.416Z,8.90
2019-05-25T16:47:34.633Z,8.43
2019-05-25T16:52:37.879Z,8.78
2019-05-25T16:57:39.726Z,9.18
2019-05-25T17:02:41.445Z,10.30
2019-05-25T17:07:43.010Z,11.38
2019-05-25T17:12:45.645Z,10.23
2019-05-25T17:17:47.778Z,11.33
2019-05-25T17:22:49.189Z,10.35
2019-05-25T17:27:50.624Z,9.78
2019-05-25T17:32:52.336Z,9.98
2019-05-25T17:37:53.722Z,10.82
2019-05-25T17:42:55.055Z,10.75
2019-05-25T17:47:56.995Z,10.55
2019-05-25T17:53:02.004Z,11.55
2019-05-25T17:58:08.558Z,11.45
2019-05-25T18:03:10.383Z,12.03
2019-05-25T18:08:12.037Z,15.15
2019-05-25T18:13:13.806Z,13.03
2019-05-25T18:18:17.671Z,14.73
2019-05-25T18:23:22.275Z,15.75
2019-05-25T18:28:23.619Z,14.45
2019-05-25T18:33:26.938Z,15.60
2019-05-25T18:38:31.811Z,17.80
2019-05-25T18:43:33.426Z,16.75
2019-05-25T18:48:53.445Z,17.17
2019-05-25T18:54:02.893Z,18.17
2019-05-25T18:59:04.312Z,18.52
2019-05-25T19:04:08.211Z,17.95
2019-05-25T19:09:09.830Z,17.32
2019-05-25T19:14:11.532Z,16.70
2019-05-25T19:19:16.821Z,17.48
2019-05-25T19:24:18.543Z,18.12
2019-05-25T19:29:19.848Z,18.05
2019-05-25T19:34:21.678Z,18.02
2019-05-25T19:39:23.332Z,17.87
2019-05-25T19:44:28.677Z,17.32
2019-05-25T19:49:32.474Z,19.90
2019-05-25T19:54:38.900Z,20.05
2019-05-25T19:59:42.546Z,20.35
2019-05-25T20:04:43.965Z,19.30
2019-05-25T20:09:45.314Z,19.67
2019-05-25T20:14:46.845Z,19.95
2019-05-25T20:19:48.227Z,20.08
2019-05-25T20:24:49.549Z,19.75
2019-05-25T20:29:50.877Z,20.20
2019-05-25T20:34:52.898Z,21.48
2019-05-25T20:39:54.219Z,22.05
2019-05-25T20:44:55.520Z,25.77
2019-05-25T20:49:57.135Z,25.32
2019-05-25T20:54:58.473Z,26.90
2019-05-25T21:00:02.544Z,25.75
2019-05-25T21:05:05.970Z,27.90
2019-05-25T21:10:09.538Z,27.70
2019-05-25T21:15:12.381Z,29.55
2019-05-25T21:20:13.922Z,28.90
2019-05-25T21:25:16.387Z,28.30
2019-05-25T21:30:18.669Z,28.75
2019-05-25T21:35:21.890Z,29.30
2019-05-25T21:40:25.737Z,31.52
2019-05-25T21:45:27.126Z,32.17
2019-05-25T21:50:30.489Z,28.70
2019-05-25T21:55:31.928Z,27.87
2019-05-25T22:00:35.191Z,25.72
2019-05-25T22:05:38.251Z,25.23
2019-05-25T22:10:39.562Z,22.05
2019-05-25T22:15:41.204Z,22.65
2019-05-25T22:20:43.618Z,23.00
2019-05-25T22:25:45.163Z,22.67
2019-05-25T22:30:47.552Z,20.80
2019-05-25T22:35:49.776Z,21.30
2019-05-25T22:40:51.036Z,24.77
2019-05-25T22:45:52.300Z,24.00
2019-05-25T22:50:54.048Z,24.85
2019-05-25T22:55:55.589Z,25.80
2019-05-25T23:00:56.870Z,25.27
2019-05-25T23:05:58.229Z,26.52
2019-05-25T23:10:59.557Z,25.88
2019-05-25T23:16:01.420Z,28.07
2019-05-25T23:21:06.170Z,27.48
2019-05-25T23:26:07.468Z,28.67
2019-05-25T23:31:08.755Z,28.80
2019-05-25T23:36:10.076Z,28.85
2019-05-25T23:41:13.261Z,28.55
2019-05-25T23:46:16.073Z,29.52
2019-05-25T23:51:38.842Z,27.93
2019-05-25T23:56:42.226Z,29.12
